Time;durP1;ratioP1;P1;durP2;ratioP2;P2;SDS_P1;SDS_P2;PMS_P1;PMS_P2;Temp;Humidity;BMP_temperature;BMP_pressure;BME280_temperature;BME280_humidity;BME280_pressure;Samples;Min_cycle;Max_cycle;Signal;HPM_P1;HPM_P2
2021/09/21 00:03:48;;;;;;;6.63;3.83;;;12.20;99.90;;;;;;12469637;28;20084;-40
2021/09/21 00:09:50;;;;;;;7.25;3.55;;;12.20;99.90;;;;;;12464244;28;20037;-35
2021/09/21 00:15:52;;;;;;;9.45;4.57;;;12.20;99.90;;;;;;12515378;28;20048;-41
2021/09/21 00:21:54;;;;;;;7.97;4.47;;;12.10;99.90;;;;;;12508176;28;20041;-35
2021/09/21 00:27:56;;;;;;;9.73;4.55;;;12.10;99.90;;;;;;12477324;28;20099;-35
2021/09/21 00:34:12;;;;;;;7.10;4.10;;;12.10;99.90;;;;;;12507300;28;20080;-35
2021/09/21 00:40:14;;;;;;;6.70;4.35;;;12.20;99.90;;;;;;12523383;28;20079;-39
2021/09/21 00:46:15;;;;;;;9.98;5.20;;;12.20;99.90;;;;;;12475762;28;20540;-38
2021/09/21 00:52:17;;;;;;;7.47;4.55;;;12.20;99.90;;;;;;12473685;28;20046;-40
2021/09/21 00:58:19;;;;;;;7.25;4.30;;;12.10;99.90;;;;;;12481314;28;20098;-35
2021/09/21 01:04:21;;;;;;;8.80;4.75;;;12.10;99.90;;;;;;12477264;28;20053;-35
2021/09/21 01:10:26;;;;;;;7.03;4.70;;;12.10;99.90;;;;;;12477109;28;20079;-38
2021/09/21 01:16:28;;;;;;;10.05;4.75;;;12.10;99.90;;;;;;12476929;28;20723;-39
2021/09/21 01:22:30;;;;;;;7.65;4.32;;;12.10;99.90;;;;;;12477243;28;20049;-39
2021/09/21 01:28:32;;;;;;;10.38;5.13;;;12.00;99.90;;;;;;12471998;28;20164;-40
2021/09/21 01:34:34;;;;;;;8.25;4.70;;;11.90;99.90;;;;;;12478295;28;20087;-39
2021/09/21 01:40:36;;;;;;;11.30;5.75;;;11.90;99.90;;;;;;12475253;28;20081;-41
2021/09/21 01:46:38;;;;;;;10.98;5.43;;;11.90;99.90;;;;;;12524386;28;20060;-38
2021/09/21 01:52:48;;;;;;;7.50;4.82;;;11.80;99.90;;;;;;12506798;28;20061;-35
2021/09/21 01:58:53;;;;;;;9.50;5.78;;;11.70;99.90;;;;;;12474437;28;20130;-35
2021/09/21 02:04:55;;;;;;;9.80;4.57;;;11.50;99.90;;;;;;12474389;28;20693;-38
2021/09/21 02:10:57;;;;;;;7.82;5.07;;;11.40;99.90;;;;;;12469190;28;20564;-38
2021/09/21 02:16:59;;;;;;;7.97;4.72;;;11.30;99.90;;;;;;12472717;28;20134;-34
2021/09/21 02:23:01;;;;;;;7.75;5.10;;;11.20;99.90;;;;;;12495567;28;20084;-35
2021/09/21 02:29:03;;;;;;;10.70;5.50;;;11.10;99.90;;;;;;12521076;28;20076;-35
2021/09/21 02:35:06;;;;;;;8.85;4.70;;;11.10;99.90;;;;;;12484087;28;20518;-38
2021/09/21 02:41:08;;;;;;;8.82;5.88;;;10.90;99.90;;;;;;12484072;28;20049;-38
2021/09/21 02:47:11;;;;;;;8.63;5.68;;;10.60;99.90;;;;;;12523478;28;20132;-39
2021/09/21 02:53:16;;;;;;;9.63;5.80;;;10.50;99.90;;;;;;12514538;28;20053;-34
2021/09/21 02:59:18;;;;;;;8.23;6.07;;;10.40;99.90;;;;;;12519061;28;20101;-43
2021/09/21 03:05:25;;;;;;;10.98;6.30;;;10.50;99.90;;;;;;12521577;28;20683;-38
2021/09/21 03:11:29;;;;;;;12.55;6.72;;;10.50;99.90;;;;;;12517184;28;20070;-34
2021/09/21 03:17:31;;;;;;;9.07;6.10;;;10.40;99.90;;;;;;12522696;28;20106;-38
2021/09/21 03:23:33;;;;;;;9.43;6.28;;;10.40;99.90;;;;;;12521215;28;20053;-35
2021/09/21 03:29:34;;;;;;;8.80;5.60;;;10.30;99.90;;;;;;12520774;28;20134;-34
2021/09/21 03:35:36;;;;;;;8.25;5.88;;;10.30;99.90;;;;;;12519442;28;20494;-39
2021/09/21 03:41:38;;;;;;;8.30;5.93;;;10.20;99.90;;;;;;12520888;28;20107;-35
2021/09/21 03:47:40;;;;;;;9.82;6.22;;;10.20;99.90;;;;;;12517786;28;20041;-34
2021/09/21 03:53:42;;;;;;;8.68;5.82;;;10.10;99.90;;;;;;12523144;28;20049;-38
2021/09/21 03:59:44;;;;;;;10.63;6.75;;;10.10;99.90;;;;;;12528927;28;20136;-38
2021/09/21 04:05:46;;;;;;;13.60;6.82;;;10.10;99.90;;;;;;12523914;28;20060;-34
2021/09/21 04:11:48;;;;;;;10.60;7.03;;;10.10;99.90;;;;;;12524111;28;20061;-38
2021/09/21 04:17:49;;;;;;;10.25;7.78;;;10.10;99.90;;;;;;12526355;28;20605;-35
2021/09/21 04:23:51;;;;;;;13.63;7.50;;;10.00;99.90;;;;;;12528140;28;20041;-38
2021/09/21 04:29:59;;;;;;;12.52;6.40;;;10.10;99.90;;;;;;12526594;28;20045;-35
2021/09/21 04:36:03;;;;;;;10.73;7.38;;;10.20;99.90;;;;;;12527301;28;20091;-40
2021/09/21 04:42:05;;;;;;;12.52;8.07;;;10.20;99.90;;;;;;12526273;28;20049;-35
2021/09/21 04:48:06;;;;;;;13.77;8.85;;;10.10;99.90;;;;;;12525904;28;20071;-38
2021/09/21 04:54:08;;;;;;;13.35;9.02;;;9.90;99.90;;;;;;12524837;28;20064;-35
2021/09/21 05:00:11;;;;;;;14.48;8.35;;;9.80;99.90;;;;;;12522338;28;20110;-35
2021/09/21 05:06:13;;;;;;;12.98;9.30;;;10.00;99.90;;;;;;12524978;28;20103;-35
2021/09/21 05:12:15;;;;;;;11.85;8.70;;;10.00;99.90;;;;;;12525008;28;20080;-35
2021/09/21 05:18:17;;;;;;;13.65;8.98;;;10.00;99.90;;;;;;12530884;28;20049;-35
2021/09/21 05:24:19;;;;;;;13.63;8.40;;;10.20;99.90;;;;;;12526478;28;20551;-39
2021/09/21 05:30:21;;;;;;;12.95;8.55;;;10.40;99.90;;;;;;12525606;28;20057;-38
2021/09/21 05:36:24;;;;;;;13.05;8.18;;;10.40;99.90;;;;;;12528401;28;20049;-38
2021/09/21 05:42:26;;;;;;;14.80;8.90;;;10.40;99.90;;;;;;12522219;28;20056;-34
2021/09/21 05:48:28;;;;;;;11.77;8.88;;;10.40;99.90;;;;;;12526424;28;20264;-38
2021/09/21 05:54:30;;;;;;;13.75;9.35;;;10.30;99.90;;;;;;12523187;28;20056;-38
2021/09/21 06:00:32;;;;;;;12.20;9.55;;;10.50;99.90;;;;;;12520832;28;20601;-38
2021/09/21 06:06:34;;;;;;;14.80;10.15;;;10.50;99.90;;;;;;12513658;28;20045;-39
2021/09/21 06:12:36;;;;;;;13.05;9.45;;;10.50;99.90;;;;;;12518511;28;20048;-38
2021/09/21 06:18:39;;;;;;;13.23;9.18;;;10.60;99.90;;;;;;12522268;28;20060;-39
2021/09/21 06:24:41;;;;;;;13.60;9.73;;;10.70;99.90;;;;;;12519997;28;20432;-35
2021/09/21 06:30:43;;;;;;;15.10;10.23;;;10.80;99.90;;;;;;12523770;28;20494;-39
2021/09/21 06:36:45;;;;;;;18.10;11.50;;;11.00;99.90;;;;;;12525729;28;20068;-35
2021/09/21 06:42:48;;;;;;;17.65;10.88;;;11.10;99.90;;;;;;12523463;28;20139;-35
2021/09/21 06:48:50;;;;;;;13.98;10.40;;;11.00;99.90;;;;;;12523162;28;20045;-35
2021/09/21 06:54:52;;;;;;;16.23;10.70;;;11.10;99.90;;;;;;12521296;28;20308;-38
2021/09/21 07:00:54;;;;;;;18.23;10.80;;;11.20;99.90;;;;;;12520258;28;20422;-39
2021/09/21 07:06:56;;;;;;;14.65;9.77;;;11.10;99.90;;;;;;12519598;28;20084;-35
2021/09/21 07:12:58;;;;;;;15.68;9.32;;;11.20;99.90;;;;;;12524056;28;20053;-35
2021/09/21 07:19:00;;;;;;;13.40;9.77;;;11.30;99.90;;;;;;12524058;28;20060;-38
2021/09/21 07:25:03;;;;;;;13.27;8.07;;;11.30;99.90;;;;;;12522693;28;20487;-39
2021/09/21 07:31:05;;;;;;;11.98;8.45;;;11.40;99.90;;;;;;12522504;28;20041;-35
2021/09/21 07:37:09;;;;;;;13.80;8.27;;;11.70;99.90;;;;;;12522276;28;20052;-35
2021/09/21 07:43:12;;;;;;;14.47;7.50;;;11.70;99.90;;;;;;12521709;28;20566;-39
2021/09/21 07:49:14;;;;;;;10.77;6.32;;;11.70;99.90;;;;;;12523839;28;20075;-38
2021/09/21 07:55:16;;;;;;;13.55;6.07;;;11.90;99.90;;;;;;12520626;28;20061;-38
2021/09/21 08:01:18;;;;;;;11.80;6.63;;;11.90;99.90;;;;;;12519874;28;20057;-39
2021/09/21 08:07:21;;;;;;;11.02;6.25;;;12.00;99.90;;;;;;12520557;28;20044;-41
2021/09/21 08:13:23;;;;;;;8.57;5.95;;;12.10;99.90;;;;;;12519558;28;20174;-38
2021/09/21 08:19:25;;;;;;;10.90;4.50;;;12.10;99.90;;;;;;12519681;28;20064;-35
2021/09/21 08:25:27;;;;;;;14.88;6.60;;;12.30;99.90;;;;;;12532195;28;20510;-38
2021/09/21 08:31:29;;;;;;;9.50;5.85;;;12.40;99.90;;;;;;12520361;28;20903;-35
2021/09/21 08:37:32;;;;;;;10.00;6.20;;;12.40;99.90;;;;;;12521757;28;20061;-35
2021/09/21 08:43:38;;;;;;;8.70;6.03;;;12.60;99.90;;;;;;12527493;28;20372;-35
2021/09/21 08:49:40;;;;;;;9.50;5.50;;;12.60;99.90;;;;;;12525636;28;20532;-35
2021/09/21 08:55:42;;;;;;;9.40;5.22;;;12.70;99.90;;;;;;12527763;28;20049;-35
2021/09/21 09:01:47;;;;;;;10.05;5.90;;;12.90;99.90;;;;;;12527855;28;20056;-38
2021/09/21 09:07:56;;;;;;;;;;;12.90;99.90;;;;;;12527894;28;20041;-38
2021/09/21 09:14:00;;;;;;;10.43;6.40;;;12.90;99.90;;;;;;12526775;28;19977;-39
2021/09/21 09:20:02;;;;;;;11.68;6.93;;;13.00;99.90;;;;;;12526970;28;20258;-39
2021/09/21 09:26:06;;;;;;;9.98;6.38;;;13.10;99.90;;;;;;12529867;28;20909;-36
2021/09/21 09:32:10;;;;;;;21.40;7.60;;;13.10;99.90;;;;;;12521611;28;20049;-35
2021/09/21 09:38:16;;;;;;;;;;;13.20;99.90;;;;;;12523441;28;20130;-38
2021/09/21 09:44:21;;;;;;;8.15;4.32;;;13.30;99.90;;;;;;12525684;28;19974;-39
2021/09/21 09:50:29;;;;;;;7.13;4.38;;;13.60;99.90;;;;;;12524132;28;20044;-39
2021/09/21 09:56:32;;;;;;;10.40;4.88;;;13.90;99.90;;;;;;12524185;28;20067;-35
2021/09/21 10:02:35;;;;;;;7.93;5.20;;;14.20;99.90;;;;;;12524157;28;20049;-40
2021/09/21 10:08:37;;;;;;;8.95;5.20;;;14.20;99.90;;;;;;12523143;28;20064;-39
2021/09/21 10:14:40;;;;;;;9.77;5.90;;;14.20;99.90;;;;;;12525284;28;20053;-35
2021/09/21 10:20:45;;;;;;;8.63;5.57;;;14.50;99.90;;;;;;12522462;28;20053;-35
2021/09/21 10:26:49;;;;;;;7.78;5.30;;;14.80;99.90;;;;;;12541141;28;20076;-39
2021/09/21 10:32:52;;;;;;;8.23;4.50;;;14.90;99.90;;;;;;12523687;28;20052;-38
2021/09/21 10:39:11;;;;;;;6.50;4.75;;;15.10;99.90;;;;;;12527727;28;20609;-35
2021/09/21 10:45:27;;;;;;;6.88;4.88;;;15.20;99.90;;;;;;12518746;28;20080;-35
2021/09/21 10:51:30;;;;;;;9.10;4.18;;;15.40;99.90;;;;;;12521391;28;20041;-35
2021/09/21 10:57:38;;;;;;;;;;;15.50;99.90;;;;;;12524443;28;20096;-35
2021/09/21 11:03:40;;;;;;;7.20;3.50;;;15.60;99.90;;;;;;12523137;28;19929;-35
2021/09/21 11:09:50;;;;;;;5.05;2.65;;;15.60;99.90;;;;;;12539883;28;20094;-34
2021/09/21 11:16:02;;;;;;;5.35;2.53;;;15.40;99.90;;;;;;12522475;28;20068;-38
2021/09/21 11:22:11;;;;;;;6.03;2.83;;;15.10;99.90;;;;;;12523475;28;20098;-40
2021/09/21 11:28:17;;;;;;;9.35;2.85;;;15.10;99.90;;;;;;12525327;28;20041;-35
2021/09/21 11:34:21;;;;;;;4.53;2.40;;;15.10;99.90;;;;;;12521700;28;20136;-39
2021/09/21 11:40:28;;;;;;;4.65;2.40;;;15.00;99.90;;;;;;12526050;28;20057;-35
2021/09/21 11:46:31;;;;;;;4.53;2.38;;;15.00;99.90;;;;;;12522329;28;20056;-39
2021/09/21 11:52:34;;;;;;;9.40;2.57;;;15.00;99.90;;;;;;12523438;28;20569;-39
2021/09/21 11:58:36;;;;;;;6.03;2.50;;;15.00;99.90;;;;;;12520734;28;20053;-38
2021/09/21 12:04:43;;;;;;;6.25;2.50;;;15.00;99.90;;;;;;12520153;28;20049;-38
2021/09/21 12:10:57;;;;;;;4.45;2.40;;;15.10;99.90;;;;;;12521912;28;20037;-38
2021/09/21 12:17:02;;;;;;;8.40;2.60;;;15.20;99.90;;;;;;12535355;28;20432;-38
2021/09/21 12:23:06;;;;;;;6.47;2.08;;;15.30;99.90;;;;;;12532516;28;20045;-38
2021/09/21 12:29:10;;;;;;;5.88;2.38;;;15.30;99.90;;;;;;12532153;28;20041;-35
2021/09/21 12:35:12;;;;;;;5.28;2.72;;;15.40;99.90;;;;;;12524636;28;20778;-40
2021/09/21 12:41:15;;;;;;;4.82;2.63;;;15.70;99.90;;;;;;12531656;28;20135;-35
2021/09/21 12:47:19;;;;;;;5.13;2.20;;;15.80;99.90;;;;;;12528344;28;20041;-35
2021/09/21 12:53:22;;;;;;;6.22;2.03;;;15.90;99.90;;;;;;12532815;28;20144;-35
2021/09/21 12:59:26;;;;;;;5.05;2.20;;;16.00;99.90;;;;;;12532809;28;20556;-38
2021/09/21 13:05:29;;;;;;;5.63;2.47;;;16.10;99.90;;;;;;12527299;28;20560;-39
2021/09/21 13:11:32;;;;;;;4.15;2.60;;;16.10;99.90;;;;;;12531005;28;20060;-39
2021/09/21 13:17:35;;;;;;;2.80;1.70;;;16.10;99.90;;;;;;12533989;28;20065;-39
2021/09/21 13:23:39;;;;;;;5.28;2.15;;;16.10;99.90;;;;;;12526060;28;20568;-38
2021/09/21 13:29:42;;;;;;;3.10;1.90;;;16.00;99.90;;;;;;12525362;28;20069;-39
2021/09/21 13:35:45;;;;;;;3.30;1.97;;;16.00;99.90;;;;;;12527279;28;20517;-37
2021/09/21 13:41:47;;;;;;;3.88;2.03;;;15.90;99.90;;;;;;12528925;28;20041;-36
2021/09/21 13:47:49;;;;;;;3.40;1.90;;;16.00;99.90;;;;;;12528803;28;20068;-35
2021/09/21 13:53:52;;;;;;;3.30;1.60;;;16.00;99.90;;;;;;12521932;28;20049;-35
2021/09/21 13:59:54;;;;;;;3.83;1.88;;;16.00;99.90;;;;;;12518935;28;20197;-35
2021/09/21 14:05:58;;;;;;;6.50;2.13;;;16.20;99.90;;;;;;12528296;28;20049;-35
2021/09/21 14:12:01;;;;;;;4.20;1.80;;;16.30;99.90;;;;;;12527328;28;20049;-38
2021/09/21 14:18:03;;;;;;;3.58;1.67;;;16.40;99.90;;;;;;12526407;28;20060;-38
2021/09/21 14:24:05;;;;;;;5.45;2.08;;;16.50;99.90;;;;;;12522144;28;20132;-38
2021/09/21 14:30:12;;;;;;;3.17;1.80;;;16.40;99.90;;;;;;12518571;28;20051;-39
2021/09/21 14:36:16;;;;;;;5.22;1.90;;;16.30;99.90;;;;;;12521642;28;20045;-39
2021/09/21 14:42:19;;;;;;;3.00;1.80;;;16.30;99.90;;;;;;12520581;28;20041;-35
2021/09/21 14:48:21;;;;;;;3.75;2.10;;;16.30;99.90;;;;;;12521087;28;20052;-39
2021/09/21 14:54:23;;;;;;;8.00;2.50;;;16.30;99.90;;;;;;12521727;28;20556;-35
2021/09/21 15:00:27;;;;;;;4.13;2.05;;;16.20;99.90;;;;;;12521484;28;20054;-38
2021/09/21 15:06:32;;;;;;;3.78;1.67;;;16.20;99.90;;;;;;12523315;28;20414;-35
2021/09/21 15:12:35;;;;;;;3.20;1.85;;;16.30;99.90;;;;;;12519736;28;20080;-35
2021/09/21 15:18:39;;;;;;;4.13;1.80;;;16.30;99.90;;;;;;12523374;28;20262;-39
2021/09/21 15:24:48;;;;;;;4.70;2.05;;;16.30;99.90;;;;;;12522124;28;20295;-39
2021/09/21 15:30:59;;;;;;;5.70;2.10;;;16.20;99.90;;;;;;12525644;28;20115;-35
2021/09/21 15:37:07;;;;;;;4.43;2.20;;;16.20;99.90;;;;;;12521160;28;20061;-39
2021/09/21 15:43:10;;;;;;;4.72;1.90;;;16.00;99.90;;;;;;12522565;28;20094;-39
2021/09/21 15:49:13;;;;;;;3.33;2.05;;;16.20;99.90;;;;;;12528040;28;20102;-36
2021/09/21 15:55:19;;;;;;;4.47;1.70;;;16.20;99.90;;;;;;12530312;28;20453;-39
2021/09/21 16:01:21;;;;;;;3.53;1.80;;;16.00;99.90;;;;;;12530821;28;20132;-35
2021/09/21 16:07:23;;;;;;;6.50;2.05;;;15.90;99.90;;;;;;12531762;28;20106;-35
2021/09/21 16:13:26;;;;;;;4.43;2.03;;;15.80;99.90;;;;;;12530828;28;20559;-38
2021/09/21 16:19:30;;;;;;;4.32;1.85;;;15.60;99.90;;;;;;12526630;28;20053;-38
2021/09/21 16:25:33;;;;;;;;;;;15.50;99.90;;;;;;12525290;28;20139;-35
2021/09/21 16:31:35;;;;;;;2.90;1.60;;;15.30;99.90;;;;;;12529431;28;20285;-41
2021/09/21 16:37:37;;;;;;;3.08;1.73;;;15.20;99.90;;;;;;12530503;28;20083;-35
2021/09/21 16:43:54;;;;;;;3.80;2.20;;;15.00;99.90;;;;;;12528031;28;20076;-35
2021/09/21 16:49:56;;;;;;;5.95;2.30;;;14.90;99.90;;;;;;12525591;28;20049;-38
2021/09/21 16:55:58;;;;;;;3.75;2.17;;;14.80;99.90;;;;;;12519760;28;20075;-35
2021/09/21 17:02:02;;;;;;;3.90;2.28;;;14.70;99.90;;;;;;12526976;28;20064;-38
2021/09/21 17:08:05;;;;;;;5.00;2.63;;;14.70;99.90;;;;;;12526029;28;20048;-39
2021/09/21 17:14:07;;;;;;;5.55;2.40;;;14.70;99.90;;;;;;12524432;28;20150;-38
2021/09/21 17:20:11;;;;;;;6.82;2.47;;;14.60;99.90;;;;;;12524160;28;20057;-38
2021/09/21 17:26:13;;;;;;;6.25;3.08;;;14.50;99.90;;;;;;12527345;28;20098;-35
2021/09/21 17:32:16;;;;;;;7.32;4.57;;;14.50;99.90;;;;;;12526231;28;20091;-34
2021/09/21 17:38:19;;;;;;;7.53;3.55;;;14.50;99.90;;;;;;12528259;28;20098;-38
2021/09/21 17:44:21;;;;;;;5.88;3.22;;;14.50;99.90;;;;;;12527351;28;20048;-35
2021/09/21 17:50:28;;;;;;;5.05;3.17;;;14.40;99.90;;;;;;12524605;28;20651;-36
2021/09/21 17:56:30;;;;;;;7.85;3.80;;;14.40;99.90;;;;;;12522982;28;20414;-35
2021/09/21 18:02:31;;;;;;;4.68;2.63;;;14.30;99.90;;;;;;12525292;28;20063;-35
2021/09/21 18:08:34;;;;;;;5.90;2.78;;;14.30;99.90;;;;;;12521495;28;20060;-39
2021/09/21 18:14:36;;;;;;;4.88;2.85;;;14.20;99.90;;;;;;12521283;28;20076;-35
2021/09/21 18:20:57;;;;;;;5.15;3.00;;;14.10;99.90;;;;;;12524326;28;20045;-40
2021/09/21 18:26:58;;;;;;;4.93;3.60;;;13.90;99.90;;;;;;12522927;28;20647;-35
2021/09/21 18:33:02;;;;;;;4.50;3.17;;;13.90;99.90;;;;;;12521259;28;20041;-38
2021/09/21 18:39:06;;;;;;;5.70;3.33;;;13.90;99.90;;;;;;12523952;28;20057;-39
2021/09/21 18:45:11;;;;;;;5.50;3.45;;;13.80;99.90;;;;;;12476449;28;20049;-35
2021/09/21 18:51:14;;;;;;;5.18;3.22;;;13.80;99.90;;;;;;12482893;28;20049;-39
2021/09/21 18:57:16;;;;;;;4.25;2.97;;;13.80;99.90;;;;;;12521503;28;20053;-37
2021/09/21 19:03:18;;;;;;;5.00;2.97;;;13.70;99.90;;;;;;12517081;28;20106;-36
2021/09/21 19:09:20;;;;;;;6.22;3.85;;;13.70;99.90;;;;;;12518895;28;20048;-39
2021/09/21 19:15:28;;;;;;;6.00;3.50;;;13.70;99.90;;;;;;12473590;28;20049;-39
2021/09/21 19:21:30;;;;;;;6.38;3.60;;;13.60;99.90;;;;;;12480367;28;20121;-40
2021/09/21 19:27:31;;;;;;;5.72;3.75;;;13.50;99.90;;;;;;12520107;28;20049;-39
2021/09/21 19:33:33;;;;;;;10.02;4.22;;;13.50;99.90;;;;;;12490895;28;20107;-35
2021/09/21 19:39:37;;;;;;;5.95;3.55;;;13.50;99.90;;;;;;12474335;28;20130;-35
2021/09/21 19:45:39;;;;;;;6.47;4.10;;;13.60;99.90;;;;;;12517076;28;20557;-38
2021/09/21 19:51:41;;;;;;;8.00;4.20;;;13.70;99.90;;;;;;12520754;28;20049;-35
2021/09/21 19:57:43;;;;;;;6.93;4.63;;;13.60;99.90;;;;;;12518633;28;20060;-35
2021/09/21 20:03:45;;;;;;;8.45;4.13;;;13.50;99.90;;;;;;12517273;28;20954;-35
2021/09/21 20:09:47;;;;;;;5.88;3.85;;;13.60;99.90;;;;;;12517739;28;20045;-38
2021/09/21 20:15:49;;;;;;;7.22;4.03;;;13.60;99.90;;;;;;12516445;28;20052;-35
2021/09/21 20:21:51;;;;;;;7.28;4.38;;;13.60;99.90;;;;;;12518293;28;20141;-35
2021/09/21 20:27:53;;;;;;;7.30;4.80;;;13.60;99.90;;;;;;12516284;28;20103;-39
2021/09/21 20:33:57;;;;;;;7.97;4.38;;;13.60;99.90;;;;;;12523013;28;20455;-35
2021/09/21 20:40:07;;;;;;;5.25;4.10;;;13.60;99.90;;;;;;12526386;28;20102;-39
2021/09/21 20:46:09;;;;;;;7.93;4.60;;;13.50;99.90;;;;;;12525547;28;20131;-35
2021/09/21 20:52:11;;;;;;;7.00;4.47;;;13.50;99.90;;;;;;12525420;28;20045;-35
2021/09/21 20:58:13;;;;;;;6.93;4.40;;;13.50;99.90;;;;;;12529925;28;20044;-39
2021/09/21 21:04:15;;;;;;;8.13;4.28;;;13.50;99.90;;;;;;12526547;28;20052;-39
2021/09/21 21:10:17;;;;;;;6.85;4.28;;;13.40;99.90;;;;;;12522145;28;20045;-39
2021/09/21 21:16:19;;;;;;;9.52;3.92;;;13.40;99.90;;;;;;12527700;28;20082;-39
2021/09/21 21:22:21;;;;;;;5.90;3.90;;;13.40;99.90;;;;;;12522337;28;20045;-35
2021/09/21 21:28:23;;;;;;;5.45;4.10;;;13.40;99.90;;;;;;12524074;28;20091;-35
2021/09/21 21:34:25;;;;;;;5.97;4.13;;;13.40;99.90;;;;;;12523107;28;20084;-38
2021/09/21 21:40:27;;;;;;;9.95;4.50;;;13.30;99.90;;;;;;12522826;28;20055;-39
2021/09/21 21:46:29;;;;;;;9.65;4.30;;;13.20;99.90;;;;;;12527249;28;20094;-39
2021/09/21 21:52:31;;;;;;;7.50;4.45;;;13.10;99.90;;;;;;12525852;28;20103;-35
2021/09/21 21:58:33;;;;;;;7.03;3.90;;;13.20;99.90;;;;;;12525291;28;20422;-35
2021/09/21 22:04:35;;;;;;;7.55;4.80;;;13.30;99.90;;;;;;12525788;28;20094;-36
2021/09/21 22:10:37;;;;;;;10.90;4.95;;;13.30;99.90;;;;;;12523430;28;20135;-38
2021/09/21 22:16:39;;;;;;;6.53;4.35;;;13.30;99.90;;;;;;12521840;28;20251;-38
2021/09/21 22:22:41;;;;;;;7.28;4.90;;;13.20;99.90;;;;;;12516226;28;20509;-35
2021/09/21 22:28:43;;;;;;;10.77;4.57;;;13.30;99.90;;;;;;12520103;28;20056;-35
2021/09/21 22:34:45;;;;;;;6.95;4.95;;;13.20;99.90;;;;;;12517439;28;20052;-39
2021/09/21 22:40:48;;;;;;;8.18;5.28;;;13.30;99.90;;;;;;12518625;28;20049;-39
2021/09/21 22:46:50;;;;;;;8.68;5.57;;;13.20;99.90;;;;;;12519921;28;20045;-39
2021/09/21 22:52:52;;;;;;;8.13;5.82;;;13.20;99.90;;;;;;12519544;28;20041;-35
2021/09/21 22:58:54;;;;;;;8.82;5.97;;;13.20;99.90;;;;;;12517833;28;20147;-39
2021/09/21 23:04:56;;;;;;;10.70;6.63;;;13.20;99.90;;;;;;12520154;28;20094;-35
2021/09/21 23:10:58;;;;;;;10.52;6.60;;;13.20;99.90;;;;;;12520631;28;20045;-35
2021/09/21 23:17:00;;;;;;;10.05;6.95;;;13.20;99.90;;;;;;12520838;28;20137;-35
2021/09/21 23:23:03;;;;;;;9.88;6.40;;;13.10;99.90;;;;;;12519049;28;20139;-35
2021/09/21 23:29:06;;;;;;;12.23;7.73;;;13.10;99.90;;;;;;12515412;28;20075;-35
2021/09/21 23:35:13;;;;;;;12.82;7.43;;;13.10;99.90;;;;;;12518605;28;20072;-35
2021/09/21 23:41:16;;;;;;;16.42;8.05;;;13.10;99.90;;;;;;12518847;28;20057;-39
2021/09/21 23:47:18;;;;;;;13.55;8.48;;;13.10;99.90;;;;;;12519736;28;20048;-39
2021/09/21 23:53:20;;;;;;;11.82;8.38;;;13.10;99.90;;;;;;12518097;28;20049;-39
2021/09/21 23:59:21;;;;;;;15.98;8.48;;;13.10;99.90;;;;;;12519501;28;20062;-38
